< < Back
Terminal Aerodrome Forecast


Current Version              Previous Versions:   1  2  3  4  5  6  7  8  9  

Terminal Aerodrome Forecast

731
FTUS42 KFFC 042202 AAA
TAFCSG
TAF AMD
KCSG 042202Z 0422/0518 22010G20KT P6SM SCT025 BKN050
     FM050200 21008KT P6SM BKN025
     FM050600 21007KT P6SM BKN007
     FM051000 21006KT 4SM -RA BR BKN005
     FM051700 31008KT 6SM -RA BR OVC008=

Latest METAR

835
SAUS70 KWBC 050354
MTRCSG
METAR KCSG 050351Z 22012G17KT 10SM OVC023 21/17 A2997 RMK AO2 SLP144
T02060172


USA.gov is the U.S. government's official web portal to all federal, state and local government web resources and services.